Time;durP1;ratioP1;P1;durP2;ratioP2;P2;SDS_P1;SDS_P2;PMS_P1;PMS_P2;Temp;Humidity;BMP_temperature;BMP_pressure;BME280_temperature;BME280_humidity;BME280_pressure;Samples;Min_cycle;Max_cycle;Signal;HPM_P1;HPM_P2
2022/04/26 03:37:56;;;;;;;13.20;7.40;;;;;;;;;;5072483;27;97317;-75
2022/04/26 03:40:22;;;;;;;16.50;7.13;;;;;;;;;;5059565;27;96583;-79
2022/04/26 03:42:48;;;;;;;11.70;7.32;;;;;;;;;;5069717;27;97531;-78
2022/04/26 03:45:15;;;;;;;16.33;8.52;;;;;;;;;;5064363;27;96392;-74
2022/04/26 03:47:41;;;;;;;15.05;7.88;;;;;;;;;;5063261;27;95713;-78
2022/04/26 03:50:08;;;;;;;17.77;8.88;;;;;;;;;;5070188;27;97443;-78
2022/04/26 03:52:34;;;;;;;14.68;7.70;;;;;;;;;;5060142;27;95331;-76
2022/04/26 03:55:01;;;;;;;12.05;7.60;;;;;;;;;;5068884;27;96758;-76
2022/04/26 03:57:27;;;;;;;15.82;8.43;;;;;;;;;;5065726;27;97444;-78
2022/04/26 03:59:54;;;;;;;14.88;8.60;;;;;;;;;;5064918;27;95323;-78
2022/04/26 04:02:20;;;;;;;18.50;8.73;;;;;;;;;;5068532;27;97339;-78
2022/04/26 04:04:47;;;;;;;14.85;9.25;;;;;;;;;;5071848;27;95251;-77
2022/04/26 04:07:13;;;;;;;11.88;7.82;;;;;;;;;;5062411;27;96823;-78
2022/04/26 04:09:39;;;;;;;17.77;8.90;;;;;;;;;;5063428;27;97397;-77
2022/04/26 04:12:06;;;;;;;15.55;8.38;;;;;;;;;;5068537;27;95499;-78
2022/04/26 04:14:32;;;;;;;16.48;8.75;;;;;;;;;;5072301;27;96842;-76
2022/04/26 04:16:58;;;;;;;17.35;9.02;;;;;;;;;;5060473;27;97422;-77
2022/04/26 04:19:27;;;;;;;20.27;10.05;;;;;;;;;;5066664;27;95403;-74
2022/04/26 04:21:53;;;;;;;17.38;9.57;;;;;;;;;;5067642;27;97209;-73
2022/04/26 04:24:20;;;;;;;18.10;9.70;;;;;;;;;;5059441;27;96136;-73
2022/04/26 04:26:47;;;;;;;16.10;9.23;;;;;;;;;;5071448;27;96794;-76
2022/04/26 19:40:55;;;;;;;8.43;4.18;;;;;;;;;;5128719;27;95696;-75
2022/04/26 19:43:21;;;;;;;11.10;4.18;;;;;;;;;;5097173;27;99262;-72
2022/04/26 19:45:47;;;;;;;15.20;4.53;;;;;;;;;;5100368;27;95378;-74
2022/04/26 19:48:14;;;;;;;8.07;4.43;;;;;;;;;;5102544;27;96780;-72
2022/04/26 19:53:25;;;;;;;8.10;4.38;;;;;;;;;;5104106;27;95366;-74
2022/04/26 19:55:51;;;;;;;10.15;4.28;;;;;;;;;;5103088;27;96639;-75
2022/04/26 19:58:18;;;;;;;7.70;4.30;;;;;;;;;;5089151;27;97490;-75
2022/04/26 20:00:44;;;;;;;10.32;4.40;;;;;;;;;;5092550;27;95321;-77
2022/04/26 20:03:13;;;;;;;9.45;5.20;;;;;;;;;;5097172;27;96351;-76
2022/04/26 20:05:41;;;;;;;15.75;8.38;;;;;;;;;;5102178;27;95355;-75
2022/04/26 20:08:08;;;;;;;16.80;8.00;;;;;;;;;;5102653;27;97125;-77
2022/04/26 20:10:34;;;;;;;18.30;8.57;;;;;;;;;;5088305;27;96938;-76
2022/04/26 20:13:00;;;;;;;16.63;8.88;;;;;;;;;;5097227;27;95325;-75
2022/04/26 20:15:27;;;;;;;13.57;7.40;;;;;;;;;;5103294;27;96537;-76
2022/04/26 20:17:53;;;;;;;8.90;5.43;;;;;;;;;;5104486;27;97076;-76
2022/04/26 20:20:19;;;;;;;13.30;6.00;;;;;;;;;;5107789;27;95666;-77
2022/04/26 20:22:46;;;;;;;9.68;5.40;;;;;;;;;;5112730;27;96769;-78
2022/04/26 20:25:14;;;;;;;11.90;5.90;;;;;;;;;;5094316;27;95685;-78
2022/04/26 20:30:26;;;;;;;12.05;6.15;;;;;;;;;;5109874;27;96140;-78
2022/04/26 20:32:52;;;;;;;13.48;5.90;;;;;;;;;;5109537;27;95118;-78
2022/04/26 20:35:21;;;;;;;10.13;5.60;;;;;;;;;;5091227;27;97164;-76
2022/04/26 20:37:50;;;;;;;10.13;5.65;;;;;;;;;;5091607;27;97685;-77
2022/04/26 20:40:24;;;;;;;12.68;5.68;;;;;;;;;;5105414;27;95302;-78
2022/04/26 20:42:53;;;;;;;11.60;6.07;;;;;;;;;;5109958;27;96820;-75
2022/04/26 20:45:19;;;;;;;11.82;5.70;;;;;;;;;;5112208;27;97670;-78
2022/04/26 20:47:48;;;;;;;14.88;6.20;;;;;;;;;;5106967;27;96873;-79
2022/04/26 20:50:14;;;;;;;12.45;5.53;;;;;;;;;;5097318;27;97282;-79
2022/04/26 20:52:41;;;;;;;12.73;5.18;;;;;;;;;;5084930;27;95324;-78
2022/04/26 20:55:07;;;;;;;17.42;4.82;;;;;;;;;;5091557;27;96249;-78
2022/04/26 20:57:34;;;;;;;10.55;5.25;;;;;;;;;;5081587;27;95307;-79
2022/04/26 21:00:00;;;;;;;10.40;6.05;;;;;;;;;;5073618;27;95386;-79
2022/04/26 21:02:26;;;;;;;13.45;5.75;;;;;;;;;;5079103;27;97268;-77
2022/04/26 21:04:53;;;;;;;14.30;7.03;;;;;;;;;;5093150;27;97338;-76
2022/04/26 21:07:19;;;;;;;13.93;6.97;;;;;;;;;;5089605;27;96860;-76
2022/04/26 21:09:46;;;;;;;12.30;6.68;;;;;;;;;;5075477;27;97295;-74
2022/04/26 21:12:12;;;;;;;20.52;7.18;;;;;;;;;;5075174;27;95397;-74
2022/04/26 21:14:39;;;;;;;11.95;7.45;;;;;;;;;;5093321;27;96408;-75
2022/04/26 21:17:05;;;;;;;14.68;7.25;;;;;;;;;;5093808;27;97116;-76
2022/04/26 21:19:33;;;;;;;15.45;8.20;;;;;;;;;;5095695;27;95305;-73
2022/04/26 21:22:00;;;;;;;15.40;7.97;;;;;;;;;;5087931;27;96985;-74
2022/04/26 21:24:26;;;;;;;15.07;8.63;;;;;;;;;;5092443;27;97227;-75
2022/04/26 21:26:53;;;;;;;14.13;8.35;;;;;;;;;;5094388;27;95326;-75
2022/04/26 21:29:19;;;;;;;17.60;9.10;;;;;;;;;;5097519;27;96980;-75
2022/04/26 21:31:46;;;;;;;13.48;8.43;;;;;;;;;;5087714;27;95385;-77
2022/04/26 21:34:12;;;;;;;16.10;8.90;;;;;;;;;;5089750;27;97016;-77
2022/04/26 21:36:40;;;;;;;17.77;8.73;;;;;;;;;;5092491;27;97838;-78
2022/04/26 21:39:10;;;;;;;19.02;8.82;;;;;;;;;;5093070;27;95695;-74
2022/04/26 21:41:37;;;;;;;12.35;8.00;;;;;;;;;;5093866;27;96715;-77
2022/04/26 21:44:03;;;;;;;14.23;7.50;;;;;;;;;;5093657;27;97697;-76
2022/04/26 21:46:29;;;;;;;11.60;6.45;;;;;;;;;;5094531;27;95556;-77
2022/04/26 21:48:56;;;;;;;14.25;6.75;;;;;;;;;;5081700;27;96688;-77
2022/04/26 21:51:32;;;;;;;20.95;9.55;;;;;;;;;;5080542;27;95414;-76
2022/04/26 21:53:59;;;;;;;16.00;7.32;;;;;;;;;;5092838;27;98006;-75
2022/04/26 21:56:25;;;;;;;17.00;7.80;;;;;;;;;;5094747;27;97424;-76
2022/04/26 21:58:54;;;;;;;11.65;6.50;;;;;;;;;;5095647;27;95355;-76
2022/04/26 22:01:21;;;;;;;15.10;7.00;;;;;;;;;;5082765;27;96731;-76
2022/04/26 22:03:48;;;;;;;11.88;6.55;;;;;;;;;;5088865;27;97554;-76
2022/04/26 22:06:14;;;;;;;14.23;6.28;;;;;;;;;;5087987;27;95458;-76
2022/04/26 22:08:42;;;;;;;13.77;6.97;;;;;;;;;;5075822;27;95212;-79
2022/04/26 22:11:11;;;;;;;13.68;6.85;;;;;;;;;;5077303;27;99773;-76
2022/04/26 22:13:44;;;;;;;12.82;6.55;;;;;;;;;;5078805;27;95779;-77
2022/04/26 22:16:10;;;;;;;14.57;6.65;;;;;;;;;;5094663;27;97262;-77
2022/04/26 22:18:57;;;;;;;10.07;7.07;;;;;;;;;;5094289;27;95471;-74
2022/04/26 22:21:23;;;;;;;12.55;7.38;;;;;;;;;;5094962;27;96833;-78
2022/04/26 22:23:49;;;;;;;12.30;7.63;;;;;;;;;;5095096;27;97251;-78
2022/04/26 22:26:16;;;;;;;14.48;6.95;;;;;;;;;;5094202;27;95967;-78
2022/04/26 22:28:42;;;;;;;15.65;7.18;;;;;;;;;;5095759;27;95625;-78
2022/04/26 22:31:08;;;;;;;10.35;6.70;;;;;;;;;;5094562;27;97338;-74
2022/04/26 22:33:35;;;;;;;12.70;6.78;;;;;;;;;;5098072;27;96862;-75
2022/04/26 22:36:01;;;;;;;16.85;7.28;;;;;;;;;;5095260;27;97241;-76
2022/04/26 22:38:27;;;;;;;12.27;6.50;;;;;;;;;;5094729;27;95342;-78
2022/04/26 22:40:54;;;;;;;12.80;6.40;;;;;;;;;;5094837;27;96582;-78
2022/04/26 22:43:20;;;;;;;12.48;6.72;;;;;;;;;;5094869;27;97527;-77
2022/04/26 22:45:46;;;;;;;15.05;7.13;;;;;;;;;;5094457;27;95445;-75
2022/04/26 22:48:13;;;;;;;11.55;6.65;;;;;;;;;;5095439;27;96886;-77
2022/04/26 22:50:39;;;;;;;10.38;6.78;;;;;;;;;;5094596;27;95955;-77
2022/04/26 22:53:05;;;;;;;12.05;7.30;;;;;;;;;;5094814;27;95218;-78
2022/04/26 22:55:34;;;;;;;14.20;6.93;;;;;;;;;;5097280;27;96754;-77
2022/04/26 22:58:03;;;;;;;10.02;6.55;;;;;;;;;;5081737;27;95381;-77
2022/04/26 23:00:31;;;;;;;12.50;6.90;;;;;;;;;;5093440;27;96855;-77
2022/04/26 23:02:57;;;;;;;12.38;6.53;;;;;;;;;;5079330;27;97408;-77
2022/04/26 23:05:24;;;;;;;14.05;6.78;;;;;;;;;;5083114;27;95318;-76
2022/04/26 23:07:50;;;;;;;12.88;6.97;;;;;;;;;;5093906;27;96591;-77
2022/04/26 23:10:17;;;;;;;17.30;7.07;;;;;;;;;;5093976;27;97307;-77
2022/04/26 23:12:44;;;;;;;12.20;7.07;;;;;;;;;;5094995;27;95235;-77
2022/04/26 23:15:10;;;;;;;13.52;7.43;;;;;;;;;;5087147;27;96817;-76
2022/04/26 23:17:37;;;;;;;14.25;6.55;;;;;;;;;;5079054;27;97363;-78
2022/04/26 23:20:03;;;;;;;12.95;7.22;;;;;;;;;;5085658;27;96767;-77
2022/04/26 23:22:30;;;;;;;12.00;6.70;;;;;;;;;;5073164;27;97119;-77
2022/04/26 23:24:56;;;;;;;11.32;7.00;;;;;;;;;;5075752;27;95162;-77
2022/04/26 23:27:22;;;;;;;11.45;7.13;;;;;;;;;;5082334;27;96726;-78
2022/04/26 23:29:48;;;;;;;12.23;6.82;;;;;;;;;;5092070;27;97357;-77
2022/04/26 23:32:15;;;;;;;12.20;6.80;;;;;;;;;;5086828;27;95739;-74
2022/04/26 23:37:33;;;;;;;13.02;7.20;;;;;;;;;;5072798;27;98386;-76
2022/04/26 23:40:00;;;;;;;10.48;6.15;;;;;;;;;;5076968;27;95816;-77
2022/04/26 23:42:27;;;;;;;14.02;6.25;;;;;;;;;;5073242;27;96259;-77
2022/04/26 23:44:53;;;;;;;15.30;7.40;;;;;;;;;;5073777;27;95155;-77
2022/04/26 23:47:20;;;;;;;8.90;6.35;;;;;;;;;;5088552;27;96789;-76
2022/04/26 23:49:47;;;;;;;13.75;7.07;;;;;;;;;;5085889;27;97261;-77
2022/04/26 23:54:58;;;;;;;14.73;7.13;;;;;;;;;;5093858;27;96606;-77
2022/04/26 23:57:24;;;;;;;12.40;7.10;;;;;;;;;;5091880;27;96283;-76
2022/04/26 23:59:50;;;;;;;16.20;8.23;;;;;;;;;;5077490;27;95332;-77
